Mn Pelican — FMLR — position and weather

sailwx.info

Track history (hours):
 
Tides and Currents Weather Stations Pressure Air Temp Water Temp Dewpoint Dewpoint Depression Visibility Wind Speed Wind Dir Waves Ship Positions

Mn Pelican

Last reported at 2018-Feb-23 20:29 UTC. Time now 2018-Feb-24 06:47 UTC.
Position N 48°50' W 005°27'.

Length 155 m; draft 6.1 m.

Type: Ship. MMSI: 228315700.

Date/timePositionNaut miles runAvg speedWind from/ knotsBaromVisibWave heightAir tempDewpointWater temp
2018-Feb-23 20:29N 48°50' W 005°27'31813.7
2018-Feb-22 21:12N 43°44' W 003°17'314.4
2018-Feb-22 21:00N 43°42' W 003°16'814.6
2018-Feb-22 20:29N 43°35' W 003°12'715.4
2018-Feb-22 20:00N 43°28' W 003°08'714.7
2018-Feb-22 19:30N 43°22' W 003°03'1 2.3
2018-Feb-22 19:00N 43°21' W 003°04'0 0.0
2018-Feb-22 18:25N 43°21' W 003°04'0 0.0
2018-Feb-22 17:55N 43°21' W 003°04'0 0.0
2018-Feb-22 17:25N 43°21' W 003°04'0 0.0
2018-Feb-22 16:55N 43°21' W 003°04'0 0.0
2018-Feb-22 16:30N 43°21' W 003°04'0 0.0
2018-Feb-22 16:00N 43°21' W 003°04'0 0.0
2018-Feb-22 15:30N 43°21' W 003°04'0 0.0
2018-Feb-22 15:00N 43°21' W 003°04'0 0.0
2018-Feb-22 14:30N 43°21' W 003°04'0 0.0
2018-Feb-22 13:59N 43°21' W 003°04'0 0.0
2018-Feb-22 13:29N 43°21' W 003°04'0 0.0
2018-Feb-22 12:59N 43°21' W 003°04'0 0.0
2018-Feb-22 12:30N 43°21' W 003°04'1 2.1
2018-Feb-22 12:01N 43°21' W 003°03'612.0
2018-Feb-22 11:30N 43°26' W 003°07'815.4
2018-Feb-22 10:59N 43°34' W 003°11'815.5
2018-Feb-22 10:27N 43°41' W 003°16'37112.4
2018-Feb-21 04:38N 49°52' W 003°36'616.7
2018-Feb-21 04:17N 49°56' W 003°29'516.9
2018-Feb-21 04:00N 49°58' W 003°23'816.9
2018-Feb-21 03:30N 50°03' W 003°12'816.7
2018-Feb-21 03:00N 50°07' W 003°00'816.2
2018-Feb-21 02:30N 50°11' W 002°49'815.7
2018-Feb-21 02:00N 50°15' W 002°38'815.0
2018-Feb-21 01:27N 50°18' W 002°27'1613.7
2018-Feb-21 00:18N 50°26' W 002°05'412.8
2018-Feb-21 00:00N 50°28' W 001°60'713.2
2018-Feb-20 23:29N 50°34' W 001°54'511.0
2018-Feb-20 23:00N 50°39' W 001°55'4 8.4
2018-Feb-20 22:30N 50°42' W 001°59'0 0.0
2018-Feb-20 21:56N 50°42' W 001°59'0 0.0
2018-Feb-20 21:26N 50°42' W 001°59'0 0.0
2018-Feb-20 20:55N 50°42' W 001°59'0 0.0
2018-Feb-20 20:29N 50°42' W 001°59'0 0.0
2018-Feb-20 20:00N 50°42' W 001°59'0 0.0
2018-Feb-20 19:30N 50°42' W 001°59'2 4.1
2018-Feb-20 19:01N 50°41' W 001°57'5 9.2
2018-Feb-20 18:30N 50°37' W 001°54'815.5
2018-Feb-20 18:00N 50°30' W 001°58'5215.4
2018-Feb-20 14:36N 49°51' W 002°52'15217.2
2018-Feb-20 05:45N 48°08' W 005°43'2519.6
2018-Feb-20 04:29N 47°44' W 005°34'1319.3
2018-Feb-20 03:48N 47°32' W 005°26'619.3
2018-Feb-20 03:30N 47°26' W 005°22'1119.5
2018-Feb-20 02:55N 47°16' W 005°16'22718.9
2018-Feb-19 14:54N 43°45' W 003°17'819.2
2018-Feb-19 14:30N 43°38' W 003°12'918.8
2018-Feb-19 14:00N 43°29' W 003°08'816.4
2018-Feb-19 13:30N 43°22' W 003°03'1 2.3
2018-Feb-19 13:00N 43°21' W 003°04'0 0.0
2018-Feb-19 12:26N 43°21' W 003°04'0 0.0
2018-Feb-19 11:56N 43°21' W 003°04'0 0.0
2018-Feb-19 11:26N 43°21' W 003°04'0 0.0
2018-Feb-19 10:55N 43°21' W 003°04'0 0.0
2018-Feb-19 10:25N 43°21' W 003°04'0 0.0
2018-Feb-19 09:56N 43°21' W 003°04'0 0.0
2018-Feb-19 09:25N 43°21' W 003°04'0 0.0
2018-Feb-19 08:55N 43°21' W 003°04'0 0.0
2018-Feb-19 08:24N 43°21' W 003°04'0 0.0
2018-Feb-19 08:00N 43°21' W 003°04'0 0.0
2018-Feb-19 07:30N 43°21' W 003°04'0 0.0
2018-Feb-19 07:00N 43°21' W 003°04'0 0.1
2018-Feb-19 06:30N 43°21' W 003°04'2 4.4
2018-Feb-19 06:00N 43°23' W 003°05'510.3
2018-Feb-19 05:30N 43°28' W 003°08'611.8
2018-Feb-19 04:58N 43°34' W 003°12'815.1
2018-Feb-19 04:28N 43°41' W 003°15'36712.7
2018-Feb-17 23:42N 49°47' W 003°48'1216.1
2018-Feb-17 22:59N 49°54' W 003°34'715.1
2018-Feb-17 22:30N 49°57' W 003°23'714.8
2018-Feb-17 22:01N 50°01' W 003°14'1214.3
2018-Feb-17 21:11N 50°07' W 002°58'213.7
2018-Feb-17 21:00N 50°08' W 002°55'713.3
2018-Feb-17 20:30N 50°11' W 002°46'813.0
2018-Feb-17 19:52N 50°15' W 002°35'2313.8
2018-Feb-17 18:11N 50°27' W 002°03'314.5
2018-Feb-17 18:00N 50°29' W 001°60'815.2
2018-Feb-17 17:29N 50°35' W 001°53'611.6
2018-Feb-17 17:00N 50°40' W 001°56'3 5.7
2018-Feb-17 16:30N 50°42' W 001°59'0 0.0
2018-Feb-17 12:09N 50°42' W 001°59'0 0.0
2018-Feb-17 10:26N 50°42' W 001°59'0 0.0
2018-Feb-17 09:52N 50°42' W 001°59'0 0.5
2018-Feb-17 09:29N 50°42' W 001°59'4 8.5
2018-Feb-17 09:00N 50°39' W 001°55'4 6.9
2018-Feb-17 08:30N 50°36' W 001°53'1018.8
2018-Feb-17 07:57N 50°26' W 001°49'818.5
2018-Feb-17 07:30N 50°18' W 001°49'1715.4
2018-Feb-17 06:22N 50°02' W 001°60'16314.5
2018-Feb-16 19:07N 48°44' W 005°40'2913.7
2018-Feb-16 17:02N 48°15' W 005°45'214.6
2018-Feb-16 16:54N 48°14' W 005°44'614.7
2018-Feb-16 16:30N 48°08' W 005°43'1114.9
2018-Feb-16 15:45N 47°57' W 005°40'915.2
2018-Feb-16 15:07N 47°48' W 005°35'315.0
2018-Feb-16 14:57N 47°45' W 005°34'815.2
2018-Feb-16 14:27N 47°38' W 005°29'815.1
2018-Feb-16 13:54N 47°31' W 005°25'815.0
2018-Feb-16 13:22N 47°23' W 005°20'514.9
2018-Feb-16 13:00N 47°18' W 005°17'23414.5
2018-Feb-15 20:54N 43°41' W 003°12'613.9
2018-Feb-15 20:30N 43°36' W 003°09'713.9
2018-Feb-15 20:00N 43°30' W 003°06'814.9
2018-Feb-15 19:30N 43°22' W 003°04'1 1.9
2018-Feb-15 19:00N 43°21' W 003°04'0 0.0
2018-Feb-15 18:25N 43°21' W 003°04'0 0.0
2018-Feb-15 18:01N 43°21' W 003°04'0 0.0
2018-Feb-15 17:30N 43°21' W 003°04'0 0.0
2018-Feb-15 17:00N 43°21' W 003°04'0 0.0
2018-Feb-15 16:30N 43°21' W 003°04'0 0.0
2018-Feb-15 16:00N 43°21' W 003°04'0 0.0
2018-Feb-15 15:29N 43°21' W 003°04'0 0.0
2018-Feb-15 14:59N 43°21' W 003°04'0 0.0
2018-Feb-15 14:29N 43°21' W 003°04'0 0.0
2018-Feb-15 13:59N 43°21' W 003°04'0 0.0
2018-Feb-15 13:29N 43°21' W 003°04'0 0.0
2018-Feb-15 12:58N 43°21' W 003°04'0 0.0
2018-Feb-15 12:30N 43°21' W 003°04'1 2.5
2018-Feb-15 12:00N 43°22' W 003°02'713.7
2018-Feb-15 11:30N 43°27' W 003°07'816.6
2018-Feb-15 11:00N 43°35' W 003°11'1417.1
2018-Feb-15 10:11N 43°49' W 003°17'317.4
2018-Feb-15 10:01N 43°52' W 003°18'36012.7
2018-Feb-14 05:36N 49°52' W 003°35'613.5
2018-Feb-14 05:08N 49°55' W 003°27'213.6
2018-Feb-14 04:59N 49°57' W 003°25'713.8
2018-Feb-14 04:30N 50°01' W 003°17'714.3
2018-Feb-14 04:01N 50°04' W 003°07'714.7
2018-Feb-14 03:31N 50°08' W 002°57'815.4
2018-Feb-14 03:01N 50°11' W 002°47'816.0
2018-Feb-14 02:31N 50°15' W 002°36'816.7
2018-Feb-14 02:01N 50°19' W 002°24'1317.6
2018-Feb-14 01:16N 50°26' W 002°07'517.9
2018-Feb-14 01:00N 50°29' W 002°01'917.9
2018-Feb-14 00:30N 50°36' W 001°54'611.5
2018-Feb-14 00:01N 50°42' W 001°57'2 0.9
2018-Feb-13 22:16N 50°42' W 001°59'0 0.0
2018-Feb-13 21:51N 50°42' W 001°59'0 0.0
2018-Feb-13 21:27N 50°42' W 001°59'0 0.0
2018-Feb-13 20:57N 50°42' W 001°59'  
Track history (hours):
 
Tides and Currents Weather Stations Pressure Air Temp Water Temp Dewpoint Dewpoint Depression Visibility Wind Speed Wind Dir Waves Ship Positions

Mn Pelican

Last reported at 2018-Feb-23 20:29 UTC. Time now 2018-Feb-24 06:47 UTC.
Position N 48°50' W 005°27'.

Length 155 m; draft 6.1 m.

Type: Ship. MMSI: 228315700.

Date/timePositionNaut miles runAvg speedWind from/ knotsBaromVisibWave heightAir tempDewpointWater temp
2018-Feb-23 20:29N 48°50' W 005°27'31813.7
2018-Feb-22 21:12N 43°44' W 003°17'314.4
2018-Feb-22 21:00N 43°42' W 003°16'814.6
2018-Feb-22 20:29N 43°35' W 003°12'715.4
2018-Feb-22 20:00N 43°28' W 003°08'714.7
2018-Feb-22 19:30N 43°22' W 003°03'1 2.3
2018-Feb-22 19:00N 43°21' W 003°04'0 0.0
2018-Feb-22 18:25N 43°21' W 003°04'0 0.0
2018-Feb-22 17:55N 43°21' W 003°04'0 0.0
2018-Feb-22 17:25N 43°21' W 003°04'0 0.0
2018-Feb-22 16:55N 43°21' W 003°04'0 0.0
2018-Feb-22 16:30N 43°21' W 003°04'0 0.0
2018-Feb-22 16:00N 43°21' W 003°04'0 0.0
2018-Feb-22 15:30N 43°21' W 003°04'0 0.0
2018-Feb-22 15:00N 43°21' W 003°04'0 0.0
2018-Feb-22 14:30N 43°21' W 003°04'0 0.0
2018-Feb-22 13:59N 43°21' W 003°04'0 0.0
2018-Feb-22 13:29N 43°21' W 003°04'0 0.0
2018-Feb-22 12:59N 43°21' W 003°04'0 0.0
2018-Feb-22 12:30N 43°21' W 003°04'1 2.1
2018-Feb-22 12:01N 43°21' W 003°03'612.0
2018-Feb-22 11:30N 43°26' W 003°07'815.4
2018-Feb-22 10:59N 43°34' W 003°11'815.5
2018-Feb-22 10:27N 43°41' W 003°16'37112.4
2018-Feb-21 04:38N 49°52' W 003°36'616.7
2018-Feb-21 04:17N 49°56' W 003°29'516.9
2018-Feb-21 04:00N 49°58' W 003°23'816.9
2018-Feb-21 03:30N 50°03' W 003°12'816.7
2018-Feb-21 03:00N 50°07' W 003°00'816.2
2018-Feb-21 02:30N 50°11' W 002°49'815.7
2018-Feb-21 02:00N 50°15' W 002°38'815.0
2018-Feb-21 01:27N 50°18' W 002°27'1613.7
2018-Feb-21 00:18N 50°26' W 002°05'412.8
2018-Feb-21 00:00N 50°28' W 001°60'713.2
2018-Feb-20 23:29N 50°34' W 001°54'511.0
2018-Feb-20 23:00N 50°39' W 001°55'4 8.4
2018-Feb-20 22:30N 50°42' W 001°59'0 0.0
2018-Feb-20 21:56N 50°42' W 001°59'0 0.0
2018-Feb-20 21:26N 50°42' W 001°59'0 0.0
2018-Feb-20 20:55N 50°42' W 001°59'0 0.0
2018-Feb-20 20:29N 50°42' W 001°59'0 0.0
2018-Feb-20 20:00N 50°42' W 001°59'0 0.0
2018-Feb-20 19:30N 50°42' W 001°59'2 4.1
2018-Feb-20 19:01N 50°41' W 001°57'5 9.2
2018-Feb-20 18:30N 50°37' W 001°54'815.5
2018-Feb-20 18:00N 50°30' W 001°58'5215.4
2018-Feb-20 14:36N 49°51' W 002°52'15217.2
2018-Feb-20 05:45N 48°08' W 005°43'2519.6
2018-Feb-20 04:29N 47°44' W 005°34'1319.3
2018-Feb-20 03:48N 47°32' W 005°26'619.3
2018-Feb-20 03:30N 47°26' W 005°22'1119.5
2018-Feb-20 02:55N 47°16' W 005°16'22718.9
2018-Feb-19 14:54N 43°45' W 003°17'819.2
2018-Feb-19 14:30N 43°38' W 003°12'918.8
2018-Feb-19 14:00N 43°29' W 003°08'816.4
2018-Feb-19 13:30N 43°22' W 003°03'1 2.3
2018-Feb-19 13:00N 43°21' W 003°04'0 0.0
2018-Feb-19 12:26N 43°21' W 003°04'0 0.0
2018-Feb-19 11:56N 43°21' W 003°04'0 0.0
2018-Feb-19 11:26N 43°21' W 003°04'0 0.0
2018-Feb-19 10:55N 43°21' W 003°04'0 0.0
2018-Feb-19 10:25N 43°21' W 003°04'0 0.0
2018-Feb-19 09:56N 43°21' W 003°04'0 0.0
2018-Feb-19 09:25N 43°21' W 003°04'0 0.0
2018-Feb-19 08:55N 43°21' W 003°04'0 0.0
2018-Feb-19 08:24N 43°21' W 003°04'0 0.0
2018-Feb-19 08:00N 43°21' W 003°04'0 0.0
2018-Feb-19 07:30N 43°21' W 003°04'0 0.0
2018-Feb-19 07:00N 43°21' W 003°04'0 0.1
2018-Feb-19 06:30N 43°21' W 003°04'2 4.4
2018-Feb-19 06:00N 43°23' W 003°05'510.3
2018-Feb-19 05:30N 43°28' W 003°08'611.8
2018-Feb-19 04:58N 43°34' W 003°12'815.1
2018-Feb-19 04:28N 43°41' W 003°15'36712.7
2018-Feb-17 23:42N 49°47' W 003°48'1216.1
2018-Feb-17 22:59N 49°54' W 003°34'715.1
2018-Feb-17 22:30N 49°57' W 003°23'714.8
2018-Feb-17 22:01N 50°01' W 003°14'1214.3
2018-Feb-17 21:11N 50°07' W 002°58'213.7
2018-Feb-17 21:00N 50°08' W 002°55'713.3
2018-Feb-17 20:30N 50°11' W 002°46'813.0
2018-Feb-17 19:52N 50°15' W 002°35'2313.8
2018-Feb-17 18:11N 50°27' W 002°03'314.5
2018-Feb-17 18:00N 50°29' W 001°60'815.2
2018-Feb-17 17:29N 50°35' W 001°53'611.6
2018-Feb-17 17:00N 50°40' W 001°56'3 5.7
2018-Feb-17 16:30N 50°42' W 001°59'0 0.0
2018-Feb-17 12:09N 50°42' W 001°59'0 0.0
2018-Feb-17 10:26N 50°42' W 001°59'0 0.0
2018-Feb-17 09:52N 50°42' W 001°59'0 0.5
2018-Feb-17 09:29N 50°42' W 001°59'4 8.5
2018-Feb-17 09:00N 50°39' W 001°55'4 6.9
2018-Feb-17 08:30N 50°36' W 001°53'1018.8
2018-Feb-17 07:57N 50°26' W 001°49'818.5
2018-Feb-17 07:30N 50°18' W 001°49'1715.4
2018-Feb-17 06:22N 50°02' W 001°60'16314.5
2018-Feb-16 19:07N 48°44' W 005°40'2913.7
2018-Feb-16 17:02N 48°15' W 005°45'214.6
2018-Feb-16 16:54N 48°14' W 005°44'614.7
2018-Feb-16 16:30N 48°08' W 005°43'1114.9
2018-Feb-16 15:45N 47°57' W 005°40'915.2
2018-Feb-16 15:07N 47°48' W 005°35'315.0
2018-Feb-16 14:57N 47°45' W 005°34'815.2
2018-Feb-16 14:27N 47°38' W 005°29'815.1
2018-Feb-16 13:54N 47°31' W 005°25'815.0
2018-Feb-16 13:22N 47°23' W 005°20'514.9
2018-Feb-16 13:00N 47°18' W 005°17'23414.5
2018-Feb-15 20:54N 43°41' W 003°12'613.9
2018-Feb-15 20:30N 43°36' W 003°09'713.9
2018-Feb-15 20:00N 43°30' W 003°06'814.9
2018-Feb-15 19:30N 43°22' W 003°04'1 1.9
2018-Feb-15 19:00N 43°21' W 003°04'0 0.0
2018-Feb-15 18:25N 43°21' W 003°04'0 0.0
2018-Feb-15 18:01N 43°21' W 003°04'0 0.0
2018-Feb-15 17:30N 43°21' W 003°04'0 0.0
2018-Feb-15 17:00N 43°21' W 003°04'0 0.0
2018-Feb-15 16:30N 43°21' W 003°04'0 0.0
2018-Feb-15 16:00N 43°21' W 003°04'0 0.0
2018-Feb-15 15:29N 43°21' W 003°04'0 0.0
2018-Feb-15 14:59N 43°21' W 003°04'0 0.0
2018-Feb-15 14:29N 43°21' W 003°04'0 0.0
2018-Feb-15 13:59N 43°21' W 003°04'0 0.0
2018-Feb-15 13:29N 43°21' W 003°04'0 0.0
2018-Feb-15 12:58N 43°21' W 003°04'0 0.0
2018-Feb-15 12:30N 43°21' W 003°04'1 2.5
2018-Feb-15 12:00N 43°22' W 003°02'713.7
2018-Feb-15 11:30N 43°27' W 003°07'816.6
2018-Feb-15 11:00N 43°35' W 003°11'1417.1
2018-Feb-15 10:11N 43°49' W 003°17'317.4
2018-Feb-15 10:01N 43°52' W 003°18'36012.7
2018-Feb-14 05:36N 49°52' W 003°35'613.5
2018-Feb-14 05:08N 49°55' W 003°27'213.6
2018-Feb-14 04:59N 49°57' W 003°25'713.8
2018-Feb-14 04:30N 50°01' W 003°17'714.3
2018-Feb-14 04:01N 50°04' W 003°07'714.7
2018-Feb-14 03:31N 50°08' W 002°57'815.4
2018-Feb-14 03:01N 50°11' W 002°47'816.0
2018-Feb-14 02:31N 50°15' W 002°36'816.7
2018-Feb-14 02:01N 50°19' W 002°24'1317.6
2018-Feb-14 01:16N 50°26' W 002°07'517.9
2018-Feb-14 01:00N 50°29' W 002°01'917.9
2018-Feb-14 00:30N 50°36' W 001°54'611.5
2018-Feb-14 00:01N 50°42' W 001°57'2 0.9
2018-Feb-13 22:16N 50°42' W 001°59'0 0.0
2018-Feb-13 21:51N 50°42' W 001°59'0 0.0
2018-Feb-13 21:27N 50°42' W 001°59'0 0.0
2018-Feb-13 20:57N 50°42' W 001°59'  

Dump ship's entire track history